Time;durP1;ratioP1;P1;durP2;ratioP2;P2;SDS_P1;SDS_P2;PMS_P1;PMS_P2;Temp;Humidity;BMP_temperature;BMP_pressure;BME280_temperature;BME280_humidity;BME280_pressure;Samples;Min_cycle;Max_cycle;Signal;HPM_P1;HPM_P2
2023/11/21 00:00:35;;;;;;;7.70;6.17;;;7.80;99.90;;;;;;5083956;28;20452;-78
2023/11/21 00:03:02;;;;;;;12.43;5.87;;;7.80;99.90;;;;;;5084651;28;20450;-77
2023/11/21 00:05:29;;;;;;;11.50;5.93;;;7.90;99.90;;;;;;5091525;28;20452;-77
2023/11/21 00:07:55;;;;;;;9.80;6.37;;;7.90;99.90;;;;;;5092652;28;20494;-78
2023/11/21 00:10:22;;;;;;;10.43;6.67;;;7.90;99.90;;;;;;5092700;28;20451;-77
2023/11/21 00:12:49;;;;;;;10.83;6.57;;;7.90;99.90;;;;;;5092833;28;20462;-79
2023/11/21 00:15:16;;;;;;;11.53;6.80;;;7.90;99.90;;;;;;5092546;28;20455;-79
2023/11/21 00:17:44;;;;;;;11.77;7.10;;;8.00;99.90;;;;;;5092624;28;20847;-79
2023/11/21 00:20:12;;;;;;;7.60;5.97;;;7.90;99.90;;;;;;5092774;28;20476;-79
2023/11/21 00:22:40;;;;;;;9.77;7.70;;;8.00;99.90;;;;;;5092798;28;20462;-78
2023/11/21 00:25:08;;;;;;;8.70;6.40;;;8.00;99.90;;;;;;5092264;28;20961;-80
2023/11/21 00:27:35;;;;;;;11.27;6.30;;;8.00;99.90;;;;;;5092116;28;20497;-78
2023/11/21 00:30:05;;;;;;;7.63;6.43;;;8.10;99.90;;;;;;5092573;28;20479;-79
2023/11/21 00:32:32;;;;;;;13.07;7.40;;;8.10;99.90;;;;;;5092404;28;20459;-80
2023/11/21 00:35:00;;;;;;;9.70;6.10;;;8.10;99.90;;;;;;5092692;28;20463;-79
2023/11/21 00:37:27;;;;;;;11.90;6.70;;;8.20;99.90;;;;;;5092014;28;20473;-79
2023/11/21 00:39:53;;;;;;;9.50;6.70;;;8.20;99.90;;;;;;5092495;28;20487;-79
2023/11/21 00:42:21;;;;;;;11.93;7.20;;;8.20;99.90;;;;;;5092368;28;20451;-79
2023/11/21 00:44:48;;;;;;;10.47;6.87;;;8.30;99.90;;;;;;5092547;28;20455;-80
2023/11/21 00:47:15;;;;;;;12.40;7.70;;;8.30;99.90;;;;;;5091451;28;20488;-79
2023/11/21 00:49:43;;;;;;;8.73;6.40;;;8.40;99.90;;;;;;5094741;28;20561;-78
2023/11/21 00:52:11;;;;;;;9.57;6.60;;;8.40;99.90;;;;;;5095551;28;20958;-78
2023/11/21 00:54:38;;;;;;;13.90;6.77;;;8.40;99.90;;;;;;5093404;28;20454;-78
2023/11/21 00:57:05;;;;;;;11.13;7.67;;;8.50;99.90;;;;;;5095468;28;20550;-78
2023/11/21 00:59:35;;;;;;;9.40;6.90;;;8.50;99.90;;;;;;5095636;28;20451;-78
2023/11/21 01:02:02;;;;;;;11.50;6.80;;;8.50;99.90;;;;;;5095870;28;20464;-78
2023/11/21 01:04:29;;;;;;;13.30;7.87;;;8.50;99.90;;;;;;5095659;28;20586;-78
2023/11/21 01:06:59;;;;;;;12.97;7.47;;;8.50;99.90;;;;;;5094866;28;20484;-79
2023/11/21 01:09:28;;;;;;;14.70;7.53;;;8.60;99.90;;;;;;5095204;28;20959;-79
2023/11/21 01:11:54;;;;;;;11.30;7.23;;;8.50;99.90;;;;;;5095529;28;20939;-78
2023/11/21 01:14:21;;;;;;;9.57;6.87;;;8.50;99.90;;;;;;5095185;28;20457;-78
2023/11/21 01:16:49;;;;;;;13.57;9.77;;;8.50;99.90;;;;;;5095058;28;20472;-79
2023/11/21 01:19:15;;;;;;;10.13;7.17;;;8.50;99.90;;;;;;5095336;28;20461;-78
2023/11/21 01:21:42;;;;;;;12.20;7.70;;;8.50;99.90;;;;;;5094877;28;20459;-79
2023/11/21 01:24:09;;;;;;;10.83;7.73;;;8.50;99.90;;;;;;5095142;28;20459;-79
2023/11/21 01:26:38;;;;;;;9.80;7.60;;;8.50;99.90;;;;;;5094471;28;20524;-79
2023/11/21 01:29:05;;;;;;;8.27;6.80;;;8.60;99.90;;;;;;5095074;28;20462;-79
2023/11/21 01:31:33;;;;;;;11.67;7.37;;;8.60;99.90;;;;;;5094549;28;20487;-79
2023/11/21 01:34:00;;;;;;;13.60;6.80;;;8.60;99.90;;;;;;5097003;28;20494;-79
2023/11/21 01:36:32;;;;;;;11.63;7.27;;;8.60;99.90;;;;;;5096464;28;20559;-79
2023/11/21 01:39:00;;;;;;;9.40;6.87;;;8.70;99.90;;;;;;5090209;28;20505;-80
2023/11/21 01:41:28;;;;;;;12.57;7.93;;;8.70;99.90;;;;;;5098057;28;20965;-78
2023/11/21 01:43:56;;;;;;;13.60;8.23;;;8.70;99.90;;;;;;5098230;28;20477;-80
2023/11/21 01:46:24;;;;;;;12.57;8.07;;;8.70;99.90;;;;;;5097552;28;20880;-80
2023/11/21 01:48:51;;;;;;;13.60;7.60;;;8.80;99.90;;;;;;5096145;28;20483;-79
2023/11/21 01:51:19;;;;;;;12.67;7.67;;;8.80;99.90;;;;;;5095634;28;20455;-80
2023/11/21 01:53:46;;;;;;;10.40;6.90;;;8.80;99.90;;;;;;5095543;28;20456;-79
2023/11/21 01:56:13;;;;;;;12.80;8.10;;;8.80;99.90;;;;;;5095313;28;20479;-79
2023/11/21 01:58:41;;;;;;;9.60;7.20;;;8.90;99.90;;;;;;5094618;28;21037;-79
2023/11/21 02:01:09;;;;;;;12.00;7.63;;;8.90;99.90;;;;;;5094677;28;20450;-79
2023/11/21 02:03:36;;;;;;;15.90;8.87;;;8.90;99.90;;;;;;5094763;28;20459;-80
2023/11/21 02:06:04;;;;;;;12.70;8.00;;;8.90;99.90;;;;;;5095273;28;20473;-78
2023/11/21 02:08:31;;;;;;;11.13;7.90;;;8.90;99.90;;;;;;5094935;28;20952;-79
2023/11/21 02:10:58;;;;;;;13.70;7.70;;;8.90;99.90;;;;;;5077092;28;20890;-79
2023/11/21 02:13:24;;;;;;;14.23;7.67;;;8.90;99.90;;;;;;5095165;28;20444;-79
2023/11/21 02:15:54;;;;;;;10.70;7.60;;;9.00;99.90;;;;;;5094972;28;20467;-79
2023/11/21 02:18:23;;;;;;;13.43;8.30;;;8.90;99.90;;;;;;5093998;28;20452;-77
2023/11/21 02:20:49;;;;;;;10.13;7.37;;;8.90;99.90;;;;;;5094900;28;20465;-80
2023/11/21 02:23:17;;;;;;;11.90;8.17;;;8.90;99.90;;;;;;5095041;28;20446;-80
2023/11/21 02:25:44;;;;;;;11.40;7.27;;;8.90;99.90;;;;;;5094828;28;20498;-79
2023/11/21 02:28:12;;;;;;;12.23;7.93;;;8.90;99.90;;;;;;5093752;28;20496;-80
2023/11/21 02:30:39;;;;;;;11.60;7.87;;;8.80;99.90;;;;;;5094450;28;20455;-78
2023/11/21 02:33:07;;;;;;;10.87;7.17;;;8.80;99.90;;;;;;5094324;28;20454;-79
2023/11/21 02:35:34;;;;;;;10.70;7.13;;;8.80;99.90;;;;;;5094017;28;20459;-79
2023/11/21 02:38:06;;;;;;;15.60;7.63;;;8.80;99.90;;;;;;5094080;28;20491;-79
2023/11/21 02:40:37;;;;;;;12.03;8.10;;;8.80;99.90;;;;;;5094047;28;20492;-78
2023/11/21 02:43:05;;;;;;;9.10;6.97;;;8.80;99.90;;;;;;5094360;28;20450;-79
2023/11/21 02:45:32;;;;;;;10.20;7.10;;;8.80;99.90;;;;;;5093788;28;20458;-79
2023/11/21 02:47:59;;;;;;;13.20;8.43;;;8.80;99.90;;;;;;5093739;28;20495;-78
2023/11/21 02:50:26;;;;;;;11.60;7.67;;;8.80;99.90;;;;;;5094344;28;20519;-78
2023/11/21 02:52:53;;;;;;;12.50;6.93;;;8.80;99.90;;;;;;5094230;28;20461;-79
2023/11/21 02:55:20;;;;;;;13.50;8.50;;;8.80;99.90;;;;;;5093455;28;20465;-78
2023/11/21 02:57:48;;;;;;;10.70;7.10;;;8.80;99.90;;;;;;5093193;28;20455;-79
2023/11/21 03:00:16;;;;;;;13.43;8.43;;;8.80;99.90;;;;;;5093479;28;20455;-79
2023/11/21 03:02:43;;;;;;;12.13;8.20;;;8.80;99.90;;;;;;5093707;28;20458;-79
2023/11/21 03:05:10;;;;;;;12.57;8.03;;;8.90;99.90;;;;;;5093237;28;20830;-78
2023/11/21 03:07:38;;;;;;;8.87;7.53;;;8.90;99.90;;;;;;5093466;28;20492;-79
2023/11/21 03:10:05;;;;;;;13.87;7.90;;;8.90;99.90;;;;;;5093343;28;20450;-78
2023/11/21 03:12:32;;;;;;;19.57;9.23;;;8.90;99.90;;;;;;5092549;28;20460;-79
2023/11/21 03:15:01;;;;;;;11.47;7.07;;;8.90;99.90;;;;;;5093195;28;20785;-79
2023/11/21 03:17:29;;;;;;;8.90;7.50;;;8.90;99.90;;;;;;5093194;28;20472;-78
2023/11/21 03:19:57;;;;;;;9.40;7.20;;;8.90;99.90;;;;;;5093267;28;20452;-79
2023/11/21 03:22:24;;;;;;;14.20;8.00;;;8.90;99.90;;;;;;5093154;28;20446;-78
2023/11/21 03:24:51;;;;;;;11.80;7.47;;;8.90;99.90;;;;;;5093077;28;20456;-80
2023/11/21 03:27:17;;;;;;;12.10;7.20;;;8.90;99.90;;;;;;5093083;28;20496;-79
2023/11/21 03:29:44;;;;;;;10.30;7.50;;;8.90;99.90;;;;;;5092864;28;20459;-78
2023/11/21 03:32:13;;;;;;;11.07;9.20;;;8.90;99.90;;;;;;5093695;28;20468;-78
2023/11/21 03:34:55;;;;;;;9.10;7.50;;;8.90;99.90;;;;;;5092738;28;20551;-78
2023/11/21 03:37:22;;;;;;;10.23;7.80;;;8.90;99.90;;;;;;5092894;28;20465;-78
2023/11/21 03:39:48;;;;;;;11.53;7.33;;;8.90;99.90;;;;;;5092690;28;20470;-78
2023/11/21 03:42:15;;;;;;;10.13;7.40;;;8.90;99.90;;;;;;5093166;28;20833;-78
2023/11/21 03:44:42;;;;;;;11.93;7.53;;;8.90;99.90;;;;;;5092573;28;20849;-78
2023/11/21 03:47:09;;;;;;;12.53;7.50;;;8.90;99.90;;;;;;5093095;28;20585;-79
2023/11/21 03:49:37;;;;;;;10.60;8.20;;;8.90;99.90;;;;;;5092799;28;20843;-79
2023/11/21 03:52:04;;;;;;;12.57;6.93;;;8.90;99.90;;;;;;5092843;28;20452;-80
2023/11/21 03:54:31;;;;;;;12.40;8.60;;;8.90;99.90;;;;;;5092117;28;20454;-79
2023/11/21 03:56:58;;;;;;;16.17;8.50;;;8.90;99.90;;;;;;5088792;28;20472;-80
2023/11/21 03:59:24;;;;;;;12.40;7.70;;;9.00;99.90;;;;;;5092450;28;20459;-80
2023/11/21 04:01:51;;;;;;;12.90;8.10;;;9.00;99.90;;;;;;5092660;28;20989;-80
2023/11/21 04:04:19;;;;;;;11.57;7.50;;;9.00;99.90;;;;;;5092798;28;20481;-79
2023/11/21 04:06:47;;;;;;;11.00;8.10;;;9.00;99.90;;;;;;5091566;28;20478;-79
2023/11/21 04:09:14;;;;;;;13.57;8.37;;;9.00;99.90;;;;;;5092259;28;20458;-80
2023/11/21 04:11:42;;;;;;;10.77;8.00;;;9.00;99.90;;;;;;5092430;28;20453;-80
2023/11/21 04:14:09;;;;;;;15.73;8.10;;;9.00;99.90;;;;;;5092739;28;20527;-78
2023/11/21 04:16:36;;;;;;;13.27;9.07;;;9.00;99.90;;;;;;5092307;28;20473;-80
2023/11/21 04:19:03;;;;;;;14.67;9.00;;;9.00;99.90;;;;;;5092327;28;20962;-79
2023/11/21 04:21:30;;;;;;;8.90;7.30;;;8.90;99.90;;;;;;5092835;28;20466;-80
2023/11/21 04:23:58;;;;;;;11.63;7.37;;;8.90;99.90;;;;;;5094350;28;20462;-80
2023/11/21 04:26:25;;;;;;;16.33;7.73;;;8.90;99.90;;;;;;5096173;28;20670;-79
2023/11/21 04:28:52;;;;;;;14.43;8.23;;;8.80;99.90;;;;;;5096020;28;20496;-78
2023/11/21 04:31:19;;;;;;;11.80;7.53;;;8.80;99.90;;;;;;5096004;28;20558;-78
2023/11/21 04:33:45;;;;;;;12.20;8.23;;;8.80;99.90;;;;;;5095956;28;20964;-78
2023/11/21 04:36:12;;;;;;;9.80;8.10;;;8.80;99.90;;;;;;5096323;28;20487;-79
2023/11/21 04:38:40;;;;;;;11.23;7.30;;;8.80;99.90;;;;;;5095590;28;20495;-80
2023/11/21 04:41:09;;;;;;;12.93;8.17;;;8.80;99.90;;;;;;5095989;28;20459;-79
2023/11/21 04:43:35;;;;;;;10.63;7.87;;;8.70;99.90;;;;;;5095998;28;20543;-80
2023/11/21 04:46:03;;;;;;;12.93;7.90;;;8.70;99.90;;;;;;5095352;28;20483;-78
2023/11/21 04:48:32;;;;;;;17.80;9.00;;;8.60;99.90;;;;;;5095340;28;20495;-78
2023/11/21 04:50:59;;;;;;;11.73;7.73;;;8.50;99.90;;;;;;5095580;28;20478;-78
2023/11/21 04:53:26;;;;;;;11.73;8.03;;;8.50;99.90;;;;;;5095303;28;20461;-78
2023/11/21 04:55:55;;;;;;;10.27;8.10;;;8.40;99.90;;;;;;5095374;28;20502;-79
2023/11/21 04:58:24;;;;;;;14.03;9.50;;;8.40;99.90;;;;;;5095384;28;21129;-79
2023/11/21 05:00:50;;;;;;;13.77;8.00;;;8.30;99.90;;;;;;5095726;28;20444;-78
2023/11/21 05:03:17;;;;;;;12.93;8.60;;;8.20;99.90;;;;;;5095500;28;20841;-78
2023/11/21 05:05:44;;;;;;;12.10;8.13;;;8.10;99.90;;;;;;5096063;28;20496;-78
2023/11/21 05:08:11;;;;;;;13.13;8.47;;;8.10;99.90;;;;;;5095054;28;20522;-79
2023/11/21 05:10:39;;;;;;;13.80;7.90;;;8.00;99.90;;;;;;5091109;28;20460;-79
2023/11/21 05:13:09;;;;;;;11.83;8.30;;;8.00;99.90;;;;;;5095610;28;20451;-79
2023/11/21 05:15:38;;;;;;;12.87;7.93;;;7.90;99.90;;;;;;5095107;28;20555;-78
2023/11/21 05:18:05;;;;;;;14.53;8.10;;;7.90;99.90;;;;;;5095094;28;20447;-78
2023/11/21 05:20:32;;;;;;;12.43;7.60;;;7.80;99.90;;;;;;5095307;28;20503;-78
2023/11/21 05:22:59;;;;;;;12.13;8.07;;;7.80;99.90;;;;;;5095146;28;20458;-80
2023/11/21 05:25:26;;;;;;;11.33;8.63;;;7.80;99.90;;;;;;5095581;28;20459;-78
2023/11/21 05:27:54;;;;;;;11.20;7.33;;;7.80;99.90;;;;;;5094994;28;20483;-79
2023/11/21 05:30:23;;;;;;;9.93;7.27;;;7.90;99.90;;;;;;5095374;28;20468;-79
2023/11/21 05:32:51;;;;;;;11.47;6.70;;;7.90;99.90;;;;;;5095413;28;20454;-78
2023/11/21 05:35:18;;;;;;;12.63;7.93;;;7.90;99.90;;;;;;5094794;28;20463;-80
2023/11/21 05:37:45;;;;;;;9.50;7.43;;;7.90;99.90;;;;;;5094469;28;20619;-79
2023/11/21 05:40:12;;;;;;;14.20;8.73;;;7.90;99.90;;;;;;5092941;28;20998;-79
2023/11/21 05:42:40;;;;;;;11.97;8.40;;;7.90;99.90;;;;;;5095413;28;20463;-79
2023/11/21 05:45:10;;;;;;;9.97;7.67;;;8.00;99.90;;;;;;5097193;28;20527;-79
2023/11/21 05:47:40;;;;;;;16.67;9.20;;;8.00;99.90;;;;;;5096377;28;20490;-79
2023/11/21 05:50:14;;;;;;;14.53;8.40;;;8.00;99.90;;;;;;5096898;28;20459;-78
2023/11/21 05:52:42;;;;;;;12.63;8.30;;;8.00;99.90;;;;;;5096631;28;20468;-79
2023/11/21 05:55:09;;;;;;;12.60;9.43;;;8.00;99.90;;;;;;5099963;28;20902;-82
2023/11/21 05:57:37;;;;;;;14.67;9.43;;;8.00;99.90;;;;;;5101565;28;20538;-82
2023/11/21 06:00:10;;;;;;;11.80;7.83;;;8.00;99.90;;;;;;5099054;28;20446;-79
2023/11/21 06:02:38;;;;;;;10.47;7.20;;;8.00;99.90;;;;;;5095511;28;20459;-80
2023/11/21 06:05:06;;;;;;;9.40;8.50;;;8.00;99.90;;;;;;5100385;28;20509;-80
2023/11/21 06:07:35;;;;;;;10.83;8.47;;;8.00;99.90;;;;;;5092088;28;20490;-80
2023/11/21 06:10:05;;;;;;;12.17;8.00;;;8.00;99.90;;;;;;5092547;28;20873;-80
2023/11/21 06:12:35;;;;;;;14.30;7.60;;;8.10;99.90;;;;;;5082786;28;20553;-79
2023/11/21 06:15:04;;;;;;;12.13;8.37;;;8.10;99.90;;;;;;5092153;28;20450;-80
2023/11/21 06:17:30;;;;;;;9.97;8.00;;;8.10;99.90;;;;;;5088335;28;20552;-79
2023/11/21 06:19:57;;;;;;;15.23;9.70;;;8.10;99.90;;;;;;5079561;28;20445;-79
2023/11/21 06:22:24;;;;;;;11.67;8.47;;;8.20;99.90;;;;;;5084753;28;20448;-79
2023/11/21 06:24:52;;;;;;;15.00;8.43;;;8.20;99.90;;;;;;5093184;28;20491;-79
2023/11/21 06:27:19;;;;;;;14.70;8.40;;;8.20;99.90;;;;;;5083865;28;20465;-79
2023/11/21 06:29:46;;;;;;;11.90;7.80;;;8.20;99.90;;;;;;5088284;28;20489;-80
2023/11/21 06:32:16;;;;;;;12.53;8.43;;;8.30;99.90;;;;;;5092974;28;20470;-79
2023/11/21 06:34:43;;;;;;;11.60;8.80;;;8.30;99.90;;;;;;5088218;28;20501;-80
2023/11/21 06:37:10;;;;;;;15.73;7.57;;;8.30;99.90;;;;;;5085675;28;20471;-80
2023/11/21 06:39:36;;;;;;;10.23;7.40;;;8.40;99.90;;;;;;5084282;28;20452;-80
2023/11/21 06:42:05;;;;;;;13.87;8.63;;;8.40;99.90;;;;;;5086642;28;21046;-78
2023/11/21 06:44:33;;;;;;;17.40;11.23;;;8.40;99.90;;;;;;5084913;28;20522;-80
2023/11/21 06:47:02;;;;;;;13.00;9.00;;;8.40;99.90;;;;;;5089909;28;20477;-81
2023/11/21 06:49:28;;;;;;;13.57;9.20;;;8.50;99.90;;;;;;5082056;28;20497;-80
2023/11/21 06:51:55;;;;;;;12.90;8.77;;;8.50;99.90;;;;;;5087968;28;20449;-80
2023/11/21 06:54:22;;;;;;;11.20;8.63;;;8.50;99.90;;;;;;5089195;28;20459;-80
2023/11/21 06:56:49;;;;;;;14.47;8.57;;;8.60;99.90;;;;;;5087667;28;20503;-81
2023/11/21 06:59:17;;;;;;;39.77;14.20;;;8.60;99.90;;;;;;5088660;28;20462;-80
2023/11/21 07:01:44;;;;;;;34.17;13.10;;;8.60;99.90;;;;;;5084882;28;20730;-80
2023/11/21 07:04:11;;;;;;;46.37;15.23;;;8.70;99.90;;;;;;5084618;28;20503;-79
2023/11/21 07:06:37;;;;;;;65.37;20.87;;;8.70;99.90;;;;;;5092365;28;20574;-80
2023/11/21 07:09:05;;;;;;;87.20;25.03;;;8.70;99.90;;;;;;5089163;28;20495;-80
2023/11/21 07:11:32;;;;;;;73.17;23.37;;;8.80;99.90;;;;;;5089750;28;20551;-79
2023/11/21 07:13:59;;;;;;;95.97;25.37;;;8.80;99.90;;;;;;5093765;28;20509;-79
2023/11/21 07:16:29;;;;;;;91.10;24.43;;;8.80;99.90;;;;;;5091122;28;20559;-79
2023/11/21 07:18:57;;;;;;;84.80;24.57;;;8.90;99.90;;;;;;5091159;28;20587;-79
2023/11/21 07:21:24;;;;;;;80.47;24.03;;;8.90;99.90;;;;;;5091579;28;20524;-79
2023/11/21 07:23:51;;;;;;;62.77;20.13;;;9.00;99.90;;;;;;5091742;28;20454;-81
2023/11/21 07:26:18;;;;;;;53.33;18.87;;;9.00;99.90;;;;;;5089474;28;20478;-79
2023/11/21 07:28:45;;;;;;;47.63;18.50;;;9.10;99.90;;;;;;5086003;28;20562;-79
2023/11/21 07:31:12;;;;;;;42.57;15.73;;;9.10;99.90;;;;;;5089711;28;20457;-79
2023/11/21 07:33:40;;;;;;;30.10;14.93;;;9.10;99.90;;;;;;5090130;28;20529;-80
2023/11/21 07:36:10;;;;;;;40.30;14.20;;;9.20;99.90;;;;;;5089293;28;20477;-80
2023/11/21 07:38:37;;;;;;;36.30;14.33;;;9.20;99.90;;;;;;5089225;28;20547;-80
2023/11/21 07:41:04;;;;;;;42.67;13.27;;;9.30;99.90;;;;;;5091441;28;20461;-79
2023/11/21 07:43:34;;;;;;;22.33;11.87;;;9.30;99.90;;;;;;5097682;28;20598;-79
2023/11/21 07:46:02;;;;;;;32.10;14.40;;;9.40;99.90;;;;;;5086120;28;20484;-80
2023/11/21 07:48:29;;;;;;;24.47;11.50;;;9.40;99.90;;;;;;5090108;28;20566;-80
2023/11/21 07:50:58;;;;;;;25.00;12.63;;;9.40;99.90;;;;;;5089681;28;20515;-79
2023/11/21 07:53:28;;;;;;;26.33;12.60;;;9.50;99.90;;;;;;5094079;28;20450;-80
2023/11/21 07:55:55;;;;;;;26.50;12.87;;;9.50;99.90;;;;;;5088833;28;20574;-80
2023/11/21 07:58:22;;;;;;;30.00;13.33;;;9.50;99.90;;;;;;5087124;28;20452;-79
2023/11/21 08:00:50;;;;;;;24.73;11.40;;;9.60;99.90;;;;;;5096136;28;20460;-80
2023/11/21 08:03:17;;;;;;;30.30;14.23;;;9.70;99.90;;;;;;5092425;28;20480;-79
2023/11/21 08:05:44;;;;;;;27.93;13.87;;;9.70;99.90;;;;;;5096100;28;20505;-81
2023/11/21 08:08:12;;;;;;;25.90;13.00;;;9.80;99.90;;;;;;5088495;28;20537;-79
2023/11/21 08:10:39;;;;;;;22.20;11.60;;;9.90;99.90;;;;;;5098524;28;20488;-79
2023/11/21 08:13:09;;;;;;;20.97;12.53;;;9.90;99.90;;;;;;5096340;28;20457;-78
2023/11/21 08:15:36;;;;;;;16.30;11.83;;;10.00;99.90;;;;;;5091444;28;20954;-79
2023/11/21 08:18:04;;;;;;;24.07;12.33;;;10.10;99.90;;;;;;5096094;28;20458;-79
2023/11/21 08:20:31;;;;;;;23.40;14.07;;;10.20;99.90;;;;;;5089355;28;20490;-80
2023/11/21 08:22:58;;;;;;;27.97;14.50;;;10.40;99.90;;;;;;5094641;28;20965;-79
2023/11/21 08:25:26;;;;;;;19.30;13.20;;;10.40;99.90;;;;;;5094767;28;20524;-79
2023/11/21 08:27:54;;;;;;;19.70;13.97;;;10.50;99.90;;;;;;5098368;28;20485;-80
2023/11/21 08:30:23;;;;;;;27.07;15.70;;;10.50;99.90;;;;;;5093231;28;20489;-81
2023/11/21 08:32:51;;;;;;;28.13;14.93;;;10.60;99.90;;;;;;5095660;28;20511;-79
2023/11/21 08:35:18;;;;;;;22.63;14.37;;;10.60;99.90;;;;;;5099876;28;20457;-79
2023/11/21 08:37:44;;;;;;;25.67;16.00;;;10.60;99.90;;;;;;5097520;28;20659;-80
2023/11/21 08:40:16;;;;;;;21.20;14.13;;;10.60;99.90;;;;;;5096622;28;20538;-81
2023/11/21 08:42:45;;;;;;;28.40;17.40;;;10.60;99.90;;;;;;5104100;28;20965;-79
2023/11/21 08:45:12;;;;;;;35.37;19.77;;;10.70;99.90;;;;;;5097749;28;20489;-80
2023/11/21 08:47:39;;;;;;;37.83;19.00;;;10.70;99.90;;;;;;5104363;28;20484;-80
2023/11/21 08:50:07;;;;;;;27.77;15.67;;;10.60;99.90;;;;;;5104052;28;20485;-80
2023/11/21 08:52:34;;;;;;;31.20;16.00;;;10.60;99.90;;;;;;5099241;28;20553;-80
2023/11/21 08:55:07;;;;;;;33.87;18.33;;;10.60;99.90;;;;;;5088526;28;20478;-80
2023/11/21 08:57:35;;;;;;;48.00;23.97;;;10.60;99.90;;;;;;5102332;28;21058;-80
2023/11/21 09:00:05;;;;;;;39.83;23.77;;;10.60;99.90;;;;;;5098292;28;20446;-81
2023/11/21 09:02:33;;;;;;;36.03;21.40;;;10.60;99.90;;;;;;5096863;28;20526;-81
2023/11/21 09:05:03;;;;;;;41.17;22.77;;;10.60;99.90;;;;;;5087020;28;20479;-80
2023/11/21 09:07:30;;;;;;;42.57;21.77;;;10.60;99.90;;;;;;5099354;28;20470;-81
2023/11/21 09:09:57;;;;;;;45.00;23.40;;;10.60;99.90;;;;;;5097151;28;20489;-81
2023/11/21 09:12:24;;;;;;;41.60;21.27;;;10.70;99.90;;;;;;5093148;28;20518;-81
2023/11/21 09:14:51;;;;;;;47.67;24.27;;;10.70;99.90;;;;;;5089863;28;20514;-80
2023/11/21 09:17:19;;;;;;;49.10;22.67;;;10.80;99.90;;;;;;5092844;28;20482;-81
2023/11/21 09:19:50;;;;;;;50.00;23.73;;;10.80;99.90;;;;;;5098453;28;20538;-81
2023/11/21 09:22:17;;;;;;;52.60;26.43;;;10.80;99.90;;;;;;5090719;28;20451;-81
2023/11/21 09:24:44;;;;;;;43.50;25.83;;;10.90;99.90;;;;;;5092265;28;20450;-81
2023/11/21 09:27:11;;;;;;;50.07;26.33;;;10.90;99.90;;;;;;5087128;28;20545;-81
2023/11/21 09:29:38;;;;;;;54.03;26.83;;;10.90;99.90;;;;;;5095748;28;20493;-80
2023/11/21 09:32:06;;;;;;;45.53;24.37;;;10.90;99.90;;;;;;5093726;28;21001;-81
2023/11/21 09:34:35;;;;;;;55.00;26.43;;;11.00;99.90;;;;;;5095993;28;20458;-81
2023/11/21 09:37:05;;;;;;;55.83;28.30;;;10.90;99.90;;;;;;5094005;28;20489;-80
2023/11/21 09:39:33;;;;;;;49.07;25.20;;;10.90;99.90;;;;;;5101070;28;20450;-79
2023/11/21 09:42:08;;;;;;;51.87;27.13;;;11.00;99.90;;;;;;5095721;28;20463;-80
2023/11/21 09:44:43;;;;;;;48.00;26.00;;;11.00;99.90;;;;;;5097403;28;20877;-82
2023/11/21 09:47:15;;;;;;;55.50;27.07;;;11.10;99.90;;;;;;5092195;28;20649;-81
2023/11/21 09:49:46;;;;;;;51.67;28.50;;;11.10;99.90;;;;;;5080330;28;20483;-81
2023/11/21 09:52:23;;;;;;;66.23;30.27;;;11.00;99.90;;;;;;5095994;28;20500;-81
2023/11/21 09:54:51;;;;;;;57.87;29.97;;;10.90;99.90;;;;;;5095496;28;20461;-81
2023/11/21 09:57:19;;;;;;;57.20;28.33;;;11.00;99.90;;;;;;5091900;28;20488;-81
2023/11/21 09:59:48;;;;;;;62.90;29.47;;;10.90;99.90;;;;;;5089369;28;20521;-79
2023/11/21 10:02:18;;;;;;;56.67;30.00;;;11.00;99.90;;;;;;5089837;28;20872;-81
2023/11/21 10:04:47;;;;;;;62.10;30.07;;;10.90;99.90;;;;;;5081763;28;20549;-81
2023/11/21 10:07:18;;;;;;;56.20;29.57;;;10.90;99.90;;;;;;5093057;28;20562;-81
2023/11/21 10:09:46;;;;;;;54.37;30.07;;;10.90;99.90;;;;;;5085194;28;20581;-81
2023/11/21 10:12:15;;;;;;;54.33;29.07;;;11.00;99.90;;;;;;5089804;28;20544;-82
2023/11/21 10:14:44;;;;;;;54.83;27.80;;;11.00;99.90;;;;;;5089475;28;20892;-81
2023/11/21 10:17:13;;;;;;;61.20;29.30;;;11.00;99.90;;;;;;5088570;28;20475;-81
2023/11/21 10:19:40;;;;;;;53.47;28.67;;;11.00;99.90;;;;;;5083411;28;20446;-80
2023/11/21 10:22:09;;;;;;;58.20;31.10;;;11.10;99.90;;;;;;5085567;28;20460;-81
2023/11/21 10:24:37;;;;;;;67.00;33.77;;;11.20;99.90;;;;;;5086714;28;20457;-81
2023/11/21 10:27:05;;;;;;;53.77;28.80;;;11.20;99.90;;;;;;5090294;28;20481;-82
2023/11/21 10:29:35;;;;;;;52.27;29.87;;;11.50;99.90;;;;;;5094939;28;20513;-81
2023/11/21 10:32:03;;;;;;;51.00;28.57;;;11.60;99.90;;;;;;5093125;28;20465;-80
2023/11/21 10:34:30;;;;;;;54.43;26.27;;;11.80;99.90;;;;;;5086170;28;20469;-81
2023/11/21 10:36:57;;;;;;;58.90;26.83;;;12.00;99.90;;;;;;5083497;28;21020;-80
2023/11/21 10:39:30;;;;;;;49.10;28.03;;;12.00;99.90;;;;;;5092544;28;20546;-81
2023/11/21 10:41:57;;;;;;;55.57;27.23;;;12.10;99.90;;;;;;5092708;28;20868;-81
2023/11/21 10:44:25;;;;;;;44.10;24.50;;;12.00;99.90;;;;;;5092793;28;20939;-81
2023/11/21 10:46:56;;;;;;;54.53;26.80;;;11.90;99.90;;;;;;5092321;28;20476;-80
2023/11/21 10:49:24;;;;;;;50.30;25.47;;;12.00;99.90;;;;;;5086585;28;20492;-81
2023/11/21 10:51:52;;;;;;;52.37;26.80;;;12.20;99.90;;;;;;5096941;28;20910;-79
2023/11/21 10:54:21;;;;;;;51.23;28.17;;;12.30;99.90;;;;;;5090716;28;20465;-81
2023/11/21 10:56:51;;;;;;;46.33;27.00;;;12.30;99.90;;;;;;5095209;28;20482;-79
2023/11/21 10:59:20;;;;;;;53.67;28.67;;;12.40;99.90;;;;;;5093489;28;20518;-81
2023/11/21 11:01:49;;;;;;;45.27;27.50;;;12.40;99.90;;;;;;5085096;28;20460;-81
2023/11/21 11:04:18;;;;;;;47.80;25.07;;;12.40;99.90;;;;;;5089725;28;21100;-81
2023/11/21 11:06:47;;;;;;;46.43;26.20;;;12.40;99.90;;;;;;5087440;28;20471;-79
2023/11/21 11:09:18;;;;;;;57.03;27.70;;;12.30;99.90;;;;;;5094760;28;21076;-82
2023/11/21 11:11:46;;;;;;;49.63;26.10;;;12.30;99.90;;;;;;5091851;28;20762;-81
2023/11/21 11:14:14;;;;;;;50.87;25.07;;;12.30;99.90;;;;;;5093772;28;20541;-81
2023/11/21 11:16:42;;;;;;;55.33;28.30;;;12.30;99.90;;;;;;5092375;28;20466;-81
2023/11/21 11:19:10;;;;;;;51.43;27.80;;;12.20;99.90;;;;;;5094889;28;20541;-80
2023/11/21 11:21:48;;;;;;;48.93;26.00;;;12.10;99.90;;;;;;5096071;28;20529;-79
2023/11/21 11:24:37;;;;;;;61.93;25.13;;;12.10;99.90;;;;;;5089957;28;20513;-81
2023/11/21 11:27:25;;;;;;;51.47;25.97;;;12.00;99.90;;;;;;5092619;28;20576;-79
2023/11/21 11:30:03;;;;;;;43.70;23.20;;;12.00;99.90;;;;;;5087600;28;20494;-81
2023/11/21 11:32:41;;;;;;;43.57;23.77;;;11.90;99.90;;;;;;5093807;28;20461;-81
2023/11/21 11:35:17;;;;;;;42.30;23.07;;;11.90;99.90;;;;;;5094245;28;21177;-81
2023/11/21 11:37:44;;;;;;;42.70;23.97;;;12.00;99.90;;;;;;5087133;28;20481;-82
2023/11/21 11:40:13;;;;;;;44.17;23.60;;;11.90;99.90;;;;;;5097306;28;20470;-83
2023/11/21 11:42:40;;;;;;;40.20;23.67;;;12.00;99.90;;;;;;5081872;28;20443;-80
2023/11/21 11:45:20;;;;;;;45.10;26.40;;;12.10;99.90;;;;;;5078629;28;20461;-82
2023/11/21 11:47:49;;;;;;;38.67;25.33;;;12.10;99.90;;;;;;5088347;28;20970;-81
2023/11/21 11:50:16;;;;;;;45.53;23.10;;;12.00;99.90;;;;;;5086520;28;20578;-82
2023/11/21 11:55:30;;;;;;;37.00;22.00;;;12.00;99.90;;;;;;5081676;28;20443;-82
2023/11/21 11:57:58;;;;;;;36.73;24.80;;;11.90;99.90;;;;;;5090564;28;20549;-81
2023/11/21 12:00:37;;;;;;;44.63;26.40;;;11.90;99.90;;;;;;5090877;28;20551;-80
2023/11/21 12:03:07;;;;;;;33.50;23.60;;;11.70;99.90;;;;;;5083577;28;20532;-81
2023/11/21 12:05:35;;;;;;;35.63;22.27;;;11.70;99.90;;;;;;5083205;28;20958;-80
2023/11/21 12:08:04;;;;;;;31.97;18.43;;;11.60;99.90;;;;;;5086183;28;20484;-80
2023/11/21 12:10:32;;;;;;;35.20;19.20;;;11.40;99.90;;;;;;5087315;28;20589;-81
2023/11/21 12:13:01;;;;;;;26.20;17.97;;;11.40;99.90;;;;;;5092326;28;20893;-81
2023/11/21 12:15:31;;;;;;;24.03;16.13;;;11.30;99.90;;;;;;5093598;28;20477;-82
2023/11/21 12:17:59;;;;;;;27.43;16.87;;;11.20;99.90;;;;;;5092476;28;20545;-82
2023/11/21 12:20:27;;;;;;;27.87;15.33;;;11.10;99.90;;;;;;5083063;28;21092;-82
2023/11/21 12:22:56;;;;;;;30.27;18.10;;;11.10;99.90;;;;;;5090586;28;20510;-81
2023/11/21 12:25:24;;;;;;;33.50;19.20;;;11.00;99.90;;;;;;5091850;28;20451;-83
2023/11/21 12:27:53;;;;;;;26.93;18.27;;;11.00;99.90;;;;;;5090684;28;20566;-82
2023/11/21 12:30:21;;;;;;;26.20;17.10;;;11.00;99.90;;;;;;5088232;28;20576;-81
2023/11/21 12:32:50;;;;;;;22.67;17.00;;;11.00;99.90;;;;;;5090261;28;20541;-81
2023/11/21 12:35:21;;;;;;;20.27;14.53;;;11.10;99.90;;;;;;5086274;28;20498;-81
2023/11/21 12:37:48;;;;;;;20.33;12.30;;;11.10;99.90;;;;;;5088178;28;20534;-80
2023/11/21 12:40:17;;;;;;;20.13;13.23;;;11.10;99.90;;;;;;5089759;28;20451;-82
2023/11/21 12:42:45;;;;;;;18.03;11.73;;;10.80;99.90;;;;;;5088507;28;20844;-82
2023/11/21 12:45:21;;;;;;;13.47;10.70;;;10.90;99.90;;;;;;5092241;28;20452;-81
2023/11/21 12:47:49;;;;;;;14.30;9.57;;;10.90;99.90;;;;;;5099137;28;20507;-81